Time;durP1;ratioP1;P1;durP2;ratioP2;P2;SDS_P1;SDS_P2;PMS_P1;PMS_P2;Temp;Humidity;BMP_temperature;BMP_pressure;BME280_temperature;BME280_humidity;BME280_pressure;Samples;Min_cycle;Max_cycle;Signal;HPM_P1;HPM_P2
2022/05/20 00:00:41;;;;;;;6.32;4.35;;;20.50;99.90;;;;;;5074915;28;20064;-70
2022/05/20 00:03:07;;;;;;;7.47;4.20;;;20.50;99.90;;;;;;5056168;28;20473;-69
2022/05/20 00:05:33;;;;;;;8.75;4.53;;;20.50;99.90;;;;;;5056728;28;20021;-71
2022/05/20 00:07:59;;;;;;;7.35;4.60;;;20.40;99.90;;;;;;5074197;28;20089;-70
2022/05/20 00:10:27;;;;;;;6.63;4.97;;;20.30;99.90;;;;;;5074518;28;20028;-70
2022/05/20 00:12:53;;;;;;;7.30;5.35;;;20.10;99.90;;;;;;5056216;28;20052;-70
2022/05/20 00:15:23;;;;;;;8.10;4.03;;;20.00;99.90;;;;;;5073968;28;20466;-71
2022/05/20 00:17:49;;;;;;;8.93;4.38;;;20.10;99.90;;;;;;5073963;28;20032;-69
2022/05/20 00:20:18;;;;;;;5.07;4.07;;;20.30;99.90;;;;;;5055925;28;20111;-71
2022/05/20 00:22:44;;;;;;;6.38;4.57;;;20.30;99.90;;;;;;5055949;28;20047;-70
2022/05/20 00:27:56;;;;;;;7.05;4.93;;;20.30;99.90;;;;;;5076271;28;20059;-70
2022/05/20 00:30:22;;;;;;;7.20;4.35;;;20.40;99.90;;;;;;5057173;28;20024;-70
2022/05/20 00:32:48;;;;;;;8.13;5.38;;;20.30;99.90;;;;;;5055837;28;20131;-69
2022/05/20 00:35:14;;;;;;;6.97;4.88;;;20.40;99.90;;;;;;5073927;28;20029;-70
2022/05/20 00:37:40;;;;;;;9.38;5.43;;;20.50;99.90;;;;;;5056153;28;20036;-69
2022/05/20 00:40:08;;;;;;;13.98;6.28;;;20.50;99.90;;;;;;5073300;28;20393;-70
2022/05/20 00:42:35;;;;;;;9.43;5.00;;;20.50;99.90;;;;;;5052045;28;20059;-70
2022/05/20 00:45:03;;;;;;;10.10;4.05;;;20.40;99.90;;;;;;5053370;28;20041;-70
2022/05/20 00:47:28;;;;;;;8.80;5.50;;;20.50;99.90;;;;;;5053572;28;20036;-70
2022/05/20 00:49:56;;;;;;;7.68;4.85;;;20.40;99.90;;;;;;5053995;28;20432;-70
2022/05/20 00:52:25;;;;;;;7.03;4.47;;;20.40;99.90;;;;;;5051841;28;20047;-69
2022/05/20 00:54:59;;;;;;;9.57;5.00;;;20.50;99.90;;;;;;5053802;28;20025;-71
2022/05/20 00:57:35;;;;;;;12.63;5.82;;;20.40;99.90;;;;;;5053854;28;20116;-71
2022/05/20 01:00:12;;;;;;;11.30;5.60;;;20.30;99.90;;;;;;5053780;28;20044;-72
2022/05/20 01:02:38;;;;;;;8.75;5.00;;;20.30;99.90;;;;;;5052086;28;20084;-71
2022/05/20 01:05:15;;;;;;;8.25;5.25;;;20.30;99.90;;;;;;5051413;28;20083;-70
2022/05/20 01:07:40;;;;;;;13.73;4.75;;;20.30;99.90;;;;;;5052236;28;20060;-71
2022/05/20 01:10:07;;;;;;;6.78;6.07;;;20.50;99.90;;;;;;5053192;28;20079;-70
2022/05/20 01:12:33;;;;;;;12.10;6.03;;;20.40;99.90;;;;;;5051630;28;20037;-70
2022/05/20 01:15:00;;;;;;;7.43;5.22;;;20.30;99.90;;;;;;5052878;28;20053;-70
2022/05/20 01:17:27;;;;;;;17.73;5.63;;;20.30;99.90;;;;;;5053019;28;20132;-70
2022/05/20 01:19:55;;;;;;;9.65;5.82;;;20.40;99.90;;;;;;5051877;28;20327;-69
2022/05/20 01:22:36;;;;;;;10.95;7.18;;;20.40;99.90;;;;;;5052730;28;20719;-70
2022/05/20 01:25:04;;;;;;;11.38;6.43;;;20.10;99.90;;;;;;5052829;28;20032;-70
2022/05/20 01:27:29;;;;;;;11.85;6.68;;;20.10;99.90;;;;;;5035284;28;20029;-70
2022/05/20 01:29:55;;;;;;;10.43;5.72;;;19.80;99.90;;;;;;5051398;28;20029;-69
2022/05/20 01:32:21;;;;;;;12.73;5.95;;;20.00;99.90;;;;;;5052522;28;20200;-70
2022/05/20 01:34:47;;;;;;;17.25;6.57;;;20.10;99.90;;;;;;5052611;28;20021;-70
2022/05/20 01:37:12;;;;;;;9.43;6.32;;;20.10;99.90;;;;;;5050857;28;20033;-71
2022/05/20 01:39:38;;;;;;;8.05;6.30;;;20.00;99.90;;;;;;5053109;28;20024;-69
2022/05/20 01:42:14;;;;;;;9.10;5.80;;;19.80;99.90;;;;;;5050247;28;20049;-71
2022/05/20 01:44:45;;;;;;;7.60;5.68;;;20.00;99.90;;;;;;5051516;28;20025;-70
2022/05/20 01:47:20;;;;;;;10.20;5.43;;;20.00;99.90;;;;;;5050464;28;20116;-71
2022/05/20 01:50:02;;;;;;;8.13;4.97;;;20.10;99.90;;;;;;5052669;28;20056;-70
2022/05/20 01:52:32;;;;;;;9.60;5.63;;;20.20;99.90;;;;;;5052647;28;20424;-71
2022/05/20 01:55:23;;;;;;;10.27;6.68;;;20.20;99.90;;;;;;5052293;28;20044;-70
2022/05/20 01:58:15;;;;;;;10.23;6.05;;;19.90;99.90;;;;;;5050062;28;20474;-70
2022/05/20 02:00:42;;;;;;;10.90;5.70;;;19.90;99.90;;;;;;5052150;28;20051;-71
2022/05/20 02:03:17;;;;;;;8.27;5.80;;;20.00;99.90;;;;;;5050441;28;20033;-70
2022/05/20 02:05:48;;;;;;;11.10;7.18;;;19.90;99.90;;;;;;5051493;28;20047;-69
2022/05/20 02:08:20;;;;;;;11.65;6.13;;;19.70;99.90;;;;;;5050895;28;20085;-69
2022/05/20 02:11:04;;;;;;;7.20;5.05;;;19.70;99.90;;;;;;5052413;28;20029;-69
2022/05/20 02:13:34;;;;;;;11.98;5.88;;;19.90;99.90;;;;;;5052927;28;20025;-69
2022/05/20 02:16:10;;;;;;;10.43;6.05;;;19.90;99.90;;;;;;5053926;28;20029;-70
2022/05/20 02:18:44;;;;;;;11.65;5.72;;;19.80;99.90;;;;;;5052704;28;20029;-70
2022/05/20 02:21:14;;;;;;;9.77;6.10;;;19.90;99.90;;;;;;5051310;28;20021;-70
2022/05/20 02:23:47;;;;;;;6.38;5.70;;;19.80;99.90;;;;;;5051906;28;20036;-70
2022/05/20 02:26:16;;;;;;;10.13;5.82;;;19.90;99.90;;;;;;5049645;28;20113;-69
2022/05/20 02:28:45;;;;;;;8.10;6.10;;;20.00;99.90;;;;;;5050540;28;20025;-69
2022/05/20 02:31:16;;;;;;;13.38;6.38;;;19.80;99.90;;;;;;5050080;28;20359;-70
2022/05/20 02:33:42;;;;;;;7.85;5.55;;;19.80;99.90;;;;;;5052075;28;20029;-69
2022/05/20 02:36:28;;;;;;;8.98;6.25;;;19.80;99.90;;;;;;5049604;28;20029;-71
2022/05/20 02:38:54;;;;;;;13.23;6.93;;;19.70;99.90;;;;;;5051787;28;20055;-69
2022/05/20 02:41:20;;;;;;;8.93;7.22;;;19.80;99.90;;;;;;5051695;28;20087;-69
2022/05/20 02:43:45;;;;;;;13.80;7.35;;;19.80;99.90;;;;;;5071588;28;20032;-70
2022/05/20 02:46:12;;;;;;;9.23;6.15;;;19.90;99.90;;;;;;5052999;28;20074;-69
2022/05/20 02:48:38;;;;;;;11.32;6.25;;;19.90;99.90;;;;;;5053687;28;20033;-69
2022/05/20 02:51:04;;;;;;;10.55;6.22;;;20.00;99.90;;;;;;5053752;28;20051;-70
2022/05/20 02:53:30;;;;;;;7.35;6.35;;;19.90;99.90;;;;;;5070745;28;20470;-71
2022/05/20 02:55:56;;;;;;;10.30;5.97;;;19.90;99.90;;;;;;5071527;28;20130;-70
2022/05/20 03:04:11;;;;;;;10.57;6.85;;;19.90;99.90;;;;;;5071297;28;20102;-70
2022/05/20 03:06:47;;;;;;;11.60;7.55;;;19.60;99.90;;;;;;5053799;28;20062;-70
2022/05/20 03:09:15;;;;;;;17.20;6.60;;;19.60;99.90;;;;;;5070556;28;20025;-69
2022/05/20 03:11:41;;;;;;;14.27;6.95;;;19.70;99.90;;;;;;5051757;28;20035;-71
2022/05/20 03:14:10;;;;;;;9.75;5.63;;;19.70;99.90;;;;;;5052524;28;20033;-74
2022/05/20 03:16:38;;;;;;;9.60;5.88;;;19.70;99.90;;;;;;5052605;28;20127;-70
2022/05/20 03:19:04;;;;;;;7.57;5.05;;;19.50;99.90;;;;;;5070897;28;20139;-70
2022/05/20 03:21:31;;;;;;;9.50;5.38;;;19.60;99.90;;;;;;5070038;28;20055;-70
2022/05/20 03:23:59;;;;;;;7.85;4.88;;;19.60;99.90;;;;;;5036426;28;20090;-70
2022/05/20 03:29:25;;;;;;;9.93;5.00;;;19.50;99.90;;;;;;5069335;28;20064;-61
2022/05/20 03:31:51;;;;;;;7.88;5.78;;;19.60;99.90;;;;;;5071149;28;20031;-61
2022/05/20 03:34:18;;;;;;;9.50;5.10;;;19.50;99.90;;;;;;5052449;28;20024;-62
2022/05/20 03:36:46;;;;;;;5.47;4.72;;;19.50;99.90;;;;;;5053177;28;20036;-62
2022/05/20 03:39:16;;;;;;;7.47;5.32;;;19.60;99.90;;;;;;5070676;28;20036;-62
2022/05/20 03:41:42;;;;;;;8.80;6.80;;;19.50;99.90;;;;;;5053273;28;20025;-61
2022/05/20 03:44:11;;;;;;;7.10;5.85;;;19.60;99.90;;;;;;5071316;28;20082;-62
2022/05/20 03:46:40;;;;;;;7.90;5.60;;;19.40;99.90;;;;;;5053106;28;20033;-62
2022/05/20 03:49:06;;;;;;;9.30;5.18;;;19.20;99.90;;;;;;5071285;28;20059;-62
2022/05/20 03:51:32;;;;;;;5.90;5.25;;;19.20;99.90;;;;;;5070287;28;20465;-62
2022/05/20 03:53:57;;;;;;;6.18;5.38;;;19.30;99.90;;;;;;5071153;28;20108;-61
2022/05/20 03:56:23;;;;;;;7.47;4.75;;;19.30;99.90;;;;;;5055558;28;20116;-64
2022/05/20 03:58:48;;;;;;;10.93;5.15;;;19.30;99.90;;;;;;5052408;28;20455;-62
2022/05/20 04:03:59;;;;;;;6.13;5.53;;;19.50;99.90;;;;;;5071252;28;20109;-61
2022/05/20 04:06:25;;;;;;;7.80;4.97;;;19.60;99.90;;;;;;5052559;28;20466;-61
2022/05/20 04:08:51;;;;;;;5.65;5.15;;;19.60;99.90;;;;;;5070992;28;20032;-62
2022/05/20 04:11:16;;;;;;;6.97;4.60;;;19.60;99.90;;;;;;5070283;28;20457;-61
2022/05/20 04:13:43;;;;;;;6.80;4.53;;;19.50;99.90;;;;;;5052664;28;20017;-61
2022/05/20 04:16:11;;;;;;;5.10;4.15;;;19.50;99.90;;;;;;5070509;28;20127;-61
2022/05/20 04:18:43;;;;;;;8.30;4.97;;;19.40;99.90;;;;;;5071013;28;20025;-62
2022/05/20 04:21:14;;;;;;;9.15;4.65;;;19.50;99.90;;;;;;5070592;28;20538;-62
2022/05/20 04:23:40;;;;;;;9.27;4.73;;;19.50;99.90;;;;;;5074408;28;20111;-61
2022/05/20 04:26:06;;;;;;;6.18;4.45;;;19.50;99.90;;;;;;5056444;28;20059;-61
2022/05/20 04:28:31;;;;;;;8.90;4.47;;;19.50;99.90;;;;;;5055340;28;20419;-62
2022/05/20 04:31:00;;;;;;;5.53;4.45;;;19.40;99.90;;;;;;5074147;28;20028;-64
2022/05/20 04:33:27;;;;;;;8.52;5.20;;;19.40;99.90;;;;;;5073511;28;20017;-62
2022/05/20 04:35:53;;;;;;;7.30;5.20;;;19.50;99.90;;;;;;5056244;28;20056;-61
2022/05/20 04:38:18;;;;;;;8.57;4.70;;;19.40;99.90;;;;;;5073489;28;20071;-62
2022/05/20 04:40:44;;;;;;;9.30;5.28;;;19.40;99.90;;;;;;5073926;28;20100;-61
2022/05/20 04:48:39;;;;;;;5.85;5.35;;;19.20;99.90;;;;;;5073862;28;20112;-61
2022/05/20 04:51:05;;;;;;;7.82;5.78;;;19.20;99.90;;;;;;5039339;28;20470;-61
2022/05/20 04:56:15;;;;;;;6.50;5.90;;;19.20;99.90;;;;;;5072814;28;20170;-61
2022/05/20 04:58:41;;;;;;;6.55;6.05;;;19.10;99.90;;;;;;5073928;28;20029;-63
2022/05/20 05:01:07;;;;;;;3.90;3.38;;;19.00;99.90;;;;;;5056019;28;20094;-63
2022/05/20 05:03:33;;;;;;;12.88;5.22;;;20.20;99.90;;;;;;5072732;28;20024;-62
2022/05/20 05:05:59;;;;;;;9.88;5.80;;;20.10;99.90;;;;;;5073787;28;20059;-64
2022/05/20 05:08:25;;;;;;;12.10;5.78;;;20.20;99.90;;;;;;5055108;28;20025;-62
2022/05/20 05:10:52;;;;;;;13.65;6.20;;;20.30;99.90;;;;;;5073691;28;20021;-63
2022/05/20 05:13:18;;;;;;;7.88;4.97;;;20.60;99.90;;;;;;5072713;28;20033;-64
2022/05/20 05:15:44;;;;;;;8.00;5.88;;;20.60;99.90;;;;;;5055460;28;20540;-63
2022/05/20 05:18:12;;;;;;;6.80;5.85;;;20.10;99.90;;;;;;5073351;28;20037;-63
2022/05/20 05:20:51;;;;;;;6.90;4.43;;;20.00;99.90;;;;;;5072892;28;20048;-63
2022/05/20 05:23:19;;;;;;;9.43;4.50;;;20.10;99.90;;;;;;5055043;28;20115;-58
2022/05/20 05:25:46;;;;;;;12.07;3.70;;;20.70;99.90;;;;;;5073033;28;20028;-58
2022/05/20 05:28:12;;;;;;;17.35;4.20;;;21.10;99.90;;;;;;5051403;28;20138;-58
2022/05/20 05:30:38;;;;;;;7.72;3.85;;;21.30;99.90;;;;;;5051165;28;20056;-59
2022/05/20 05:33:03;;;;;;;11.02;4.13;;;21.60;99.90;;;;;;5052726;28;20060;-59
2022/05/20 05:35:31;;;;;;;7.30;2.88;;;21.70;99.90;;;;;;5051684;28;20527;-58
2022/05/20 05:37:57;;;;;;;12.30;3.95;;;21.90;99.90;;;;;;5051358;28;20028;-63
2022/05/20 05:40:26;;;;;;;11.45;3.25;;;22.10;99.90;;;;;;5052117;28;20143;-63
2022/05/20 05:42:52;;;;;;;6.00;3.50;;;22.30;99.90;;;;;;5052419;28;20025;-64
2022/05/20 05:45:21;;;;;;;9.32;3.83;;;22.10;99.90;;;;;;5052177;28;20055;-65
2022/05/20 05:47:53;;;;;;;5.75;3.53;;;22.20;99.90;;;;;;5052138;28;20098;-63
2022/05/20 05:50:20;;;;;;;5.85;3.45;;;22.30;99.90;;;;;;5052240;28;20032;-63
2022/05/20 05:52:46;;;;;;;5.15;3.25;;;22.40;99.90;;;;;;5050488;28;20025;-64
2022/05/20 05:55:12;;;;;;;9.98;3.08;;;22.50;99.90;;;;;;5050474;28;20466;-65
2022/05/20 05:57:38;;;;;;;6.70;3.80;;;22.50;99.90;;;;;;5050707;28;20076;-63
2022/05/20 06:00:05;;;;;;;7.25;3.38;;;22.60;99.90;;;;;;5052451;28;20467;-64
2022/05/20 06:02:31;;;;;;;7.88;3.70;;;22.60;99.90;;;;;;5051348;28;20480;-63
2022/05/20 06:04:56;;;;;;;6.72;3.22;;;22.70;99.90;;;;;;5050648;28;20078;-64
2022/05/20 06:07:22;;;;;;;5.57;3.03;;;22.70;99.90;;;;;;5051592;28;20477;-64
2022/05/20 06:09:48;;;;;;;6.47;2.78;;;22.70;99.90;;;;;;5051680;28;20025;-64
2022/05/20 06:12:14;;;;;;;5.45;3.35;;;22.80;99.90;;;;;;5051712;28;20036;-63
2022/05/20 06:14:40;;;;;;;4.72;2.63;;;22.80;99.90;;;;;;5049185;28;20037;-62
2022/05/20 06:17:11;;;;;;;4.80;3.25;;;22.80;99.90;;;;;;5050431;28;20078;-63
2022/05/20 06:19:37;;;;;;;7.47;3.50;;;22.70;99.90;;;;;;5051356;28;20471;-62
2022/05/20 06:22:03;;;;;;;5.55;4.00;;;22.50;99.90;;;;;;5032934;28;20131;-63
2022/05/20 06:24:29;;;;;;;6.43;3.70;;;22.00;99.90;;;;;;5034402;28;20541;-62
2022/05/20 06:26:54;;;;;;;6.93;3.65;;;21.80;99.90;;;;;;5033051;28;20033;-62
2022/05/20 06:29:20;;;;;;;6.05;3.05;;;21.90;99.90;;;;;;5030537;28;20153;-63
2022/05/20 06:31:46;;;;;;;4.45;3.17;;;21.80;99.90;;;;;;5035562;28;20029;-66
2022/05/20 06:34:12;;;;;;;8.02;3.92;;;21.50;99.90;;;;;;5045885;28;20017;-66
2022/05/20 06:42:06;;;;;;;17.38;6.22;;;20.20;99.90;;;;;;5051484;28;20513;-64
2022/05/20 06:44:32;;;;;;;14.52;5.10;;;20.50;99.90;;;;;;5032609;28;20052;-63
2022/05/20 06:46:57;;;;;;;4.93;3.83;;;20.80;99.90;;;;;;5049408;28;20119;-64
2022/05/20 06:49:23;;;;;;;7.60;4.13;;;20.50;99.90;;;;;;5049572;28;20047;-66
2022/05/20 06:51:50;;;;;;;5.82;4.10;;;20.60;99.90;;;;;;5051046;28;20025;-64
2022/05/20 06:54:16;;;;;;;12.45;5.10;;;20.30;99.90;;;;;;5049600;28;20474;-65
2022/05/20 06:56:44;;;;;;;10.60;5.40;;;20.50;99.90;;;;;;5049949;28;20082;-64
2022/05/20 06:59:10;;;;;;;10.88;5.30;;;20.50;99.90;;;;;;5049793;28;20131;-66
2022/05/20 07:01:38;;;;;;;13.02;6.05;;;20.50;99.90;;;;;;5049041;28;20108;-66
2022/05/20 07:04:04;;;;;;;9.23;6.50;;;20.70;99.90;;;;;;5049716;28;20029;-65
2022/05/20 07:06:32;;;;;;;12.07;6.15;;;20.40;99.90;;;;;;5049461;28;20037;-65
2022/05/20 07:08:58;;;;;;;7.68;6.47;;;20.50;99.90;;;;;;5050949;28;20025;-65
2022/05/20 07:11:25;;;;;;;7.90;5.53;;;20.50;99.90;;;;;;5049075;28;20025;-65
2022/05/20 07:13:54;;;;;;;16.35;6.22;;;20.60;99.90;;;;;;5049748;28;20044;-64
2022/05/20 07:16:21;;;;;;;9.57;5.38;;;20.80;99.90;;;;;;5049470;28;20033;-64
2022/05/20 07:18:47;;;;;;;7.40;4.80;;;21.10;99.90;;;;;;5050039;28;20493;-64
2022/05/20 07:21:13;;;;;;;12.95;6.32;;;21.30;99.90;;;;;;5051091;28;20025;-65
2022/05/20 07:23:38;;;;;;;9.90;5.25;;;21.50;99.90;;;;;;5049023;28;20035;-65
2022/05/20 07:26:05;;;;;;;8.88;4.70;;;22.00;99.90;;;;;;5049200;28;20017;-64
2022/05/20 07:28:32;;;;;;;11.43;5.38;;;22.10;99.90;;;;;;5061978;28;20474;-66
2022/05/20 07:30:58;;;;;;;9.13;5.40;;;22.40;99.90;;;;;;5052611;28;20116;-64
2022/05/20 07:33:24;;;;;;;9.30;5.65;;;22.30;99.90;;;;;;5052125;28;20060;-65
2022/05/20 07:35:50;;;;;;;11.27;4.88;;;22.50;99.90;;;;;;5052664;28;20036;-65
2022/05/20 07:38:16;;;;;;;14.40;5.30;;;22.30;99.90;;;;;;5070309;28;20509;-64
2022/05/20 07:40:44;;;;;;;8.93;6.20;;;22.30;99.90;;;;;;5069786;28;20114;-63
2022/05/20 07:43:11;;;;;;;9.63;5.60;;;22.40;99.90;;;;;;5070602;28;20092;-64
2022/05/20 07:45:36;;;;;;;17.30;6.10;;;22.20;99.90;;;;;;5069706;28;20028;-65
2022/05/20 07:48:02;;;;;;;7.63;5.18;;;22.20;99.90;;;;;;5070418;28;20472;-64
2022/05/20 07:50:29;;;;;;;9.40;5.13;;;22.40;99.90;;;;;;5069866;28;20035;-65
2022/05/20 07:55:45;;;;;;;12.07;3.53;;;22.90;99.90;;;;;;5069858;28;20061;-62
2022/05/20 07:58:15;;;;;;;14.30;4.37;;;23.20;99.90;;;;;;5055364;28;20048;-62
2022/05/20 08:00:41;;;;;;;10.82;4.78;;;23.60;99.90;;;;;;5056005;28;20036;-63
2022/05/20 08:03:10;;;;;;;10.50;5.80;;;23.80;99.90;;;;;;5074406;28;20353;-63
2022/05/20 08:05:36;;;;;;;11.18;5.80;;;23.80;99.90;;;;;;5073681;28;20029;-63
2022/05/20 08:08:06;;;;;;;13.25;4.93;;;24.00;99.90;;;;;;5074367;28;20020;-63
2022/05/20 08:10:35;;;;;;;17.27;7.30;;;24.30;99.90;;;;;;5055426;28;20035;-64
2022/05/20 08:13:02;;;;;;;12.95;6.80;;;24.50;99.90;;;;;;5056229;28;20452;-63
2022/05/20 08:15:29;;;;;;;10.90;6.43;;;24.30;99.90;;;;;;5073484;28;20336;-64
2022/05/20 08:17:55;;;;;;;14.65;6.43;;;24.10;99.90;;;;;;5073994;28;20031;-63
2022/05/20 08:20:28;;;;;;;11.52;6.70;;;24.30;99.90;;;;;;5073337;28;20029;-65
2022/05/20 08:22:54;;;;;;;11.77;6.95;;;24.60;99.90;;;;;;5050419;28;20037;-66
2022/05/20 08:25:21;;;;;;;12.45;7.90;;;25.10;99.90;;;;;;5069421;28;20024;-64
2022/05/20 08:27:47;;;;;;;8.43;6.80;;;25.40;99.90;;;;;;5067407;28;20143;-65
2022/05/20 08:30:19;;;;;;;9.60;6.10;;;25.40;99.90;;;;;;5068653;28;20046;-64
2022/05/20 08:32:45;;;;;;;11.68;6.85;;;25.50;99.90;;;;;;5071144;28;20028;-63
2022/05/20 08:35:11;;;;;;;11.52;9.93;;;25.80;99.90;;;;;;5056278;28;20116;-63
2022/05/20 08:37:39;;;;;;;11.50;8.13;;;25.30;99.90;;;;;;5073685;28;20029;-62
2022/05/20 08:40:08;;;;;;;12.80;8.77;;;25.50;99.90;;;;;;5055536;28;20028;-61
2022/05/20 08:42:33;;;;;;;12.90;9.25;;;25.20;99.90;;;;;;5054899;28;20102;-63
2022/05/20 08:45:02;;;;;;;14.80;9.43;;;25.10;99.90;;;;;;5073575;28;20052;-62
2022/05/20 08:47:41;;;;;;;11.90;9.10;;;24.80;99.90;;;;;;5072664;28;20028;-62
2022/05/20 08:50:13;;;;;;;10.20;8.50;;;25.00;99.90;;;;;;5073476;28;20033;-62
2022/05/20 08:52:39;;;;;;;12.30;7.53;;;25.60;99.90;;;;;;5072626;28;20028;-62
2022/05/20 08:55:06;;;;;;;13.73;9.98;;;26.10;99.90;;;;;;5073083;28;20459;-63
2022/05/20 08:57:33;;;;;;;12.02;8.13;;;25.70;99.90;;;;;;5053956;28;20048;-64
2022/05/20 09:00:00;;;;;;;12.65;8.75;;;25.70;99.90;;;;;;5073312;28;20032;-62
2022/05/20 09:02:26;;;;;;;11.32;10.00;;;25.90;99.90;;;;;;5072739;28;20446;-61
2022/05/20 09:04:52;;;;;;;13.15;8.85;;;25.90;99.90;;;;;;5072763;28;20107;-63
2022/05/20 09:07:20;;;;;;;10.82;9.80;;;25.90;99.90;;;;;;5072937;28;20461;-64
2022/05/20 09:09:53;;;;;;;11.77;9.57;;;26.40;99.90;;;;;;5070910;28;20036;-63
2022/05/20 09:12:37;;;;;;;11.43;10.10;;;26.70;99.90;;;;;;5054836;28;20025;-63
2022/05/20 09:18:05;;;;;;;12.88;10.65;;;25.90;99.90;;;;;;5072965;28;20078;-63
2022/05/20 09:20:31;;;;;;;17.30;11.82;;;26.20;99.90;;;;;;5053702;28;20032;-61
2022/05/20 09:23:04;;;;;;;13.35;10.55;;;25.80;99.90;;;;;;5054792;28;20051;-63
2022/05/20 09:25:33;;;;;;;26.40;10.13;;;26.00;99.90;;;;;;5054083;28;20028;-64
2022/05/20 09:28:33;;;;;;;14.32;12.10;;;26.80;99.90;;;;;;5072117;28;20064;-63
2022/05/20 09:31:33;;;;;;;13.35;9.75;;;26.40;99.90;;;;;;5054637;28;20029;-64
2022/05/20 09:34:26;;;;;;;20.55;9.70;;;26.90;99.90;;;;;;5027955;28;20045;-63
2022/05/20 09:36:59;;;;;;;14.43;8.98;;;27.60;99.90;;;;;;5053683;28;20029;-63
2022/05/20 09:39:30;;;;;;;10.27;8.77;;;28.10;99.90;;;;;;5053959;28;20382;-63
2022/05/20 09:42:18;;;;;;;12.70;9.65;;;28.40;99.90;;;;;;5072059;28;20047;-65
2022/05/20 09:44:49;;;;;;;15.57;9.73;;;28.50;99.90;;;;;;5053554;28;20115;-62
2022/05/20 09:47:30;;;;;;;12.18;9.50;;;27.50;99.90;;;;;;5072494;28;20052;-62
2022/05/20 09:50:38;;;;;;;14.75;8.63;;;27.90;99.90;;;;;;5054126;28;20025;-62
2022/05/20 09:53:26;;;;;;;14.57;9.73;;;27.60;99.90;;;;;;5061266;28;20126;-62
2022/05/20 09:56:22;;;;;;;19.13;9.88;;;28.00;99.90;;;;;;5071556;28;20050;-64
2022/05/20 09:59:19;;;;;;;17.00;10.50;;;27.60;99.90;;;;;;5070891;28;20371;-62
2022/05/20 10:01:56;;;;;;;13.73;8.85;;;27.00;99.90;;;;;;5071787;28;20032;-63
2022/05/20 10:04:32;;;;;;;14.00;8.85;;;27.10;99.90;;;;;;5053636;28;20029;-62
2022/05/20 10:07:00;;;;;;;17.30;9.10;;;27.50;99.90;;;;;;5053820;28;20500;-63
2022/05/20 10:09:39;;;;;;;16.55;7.75;;;26.70;99.90;;;;;;5072118;28;20021;-62
2022/05/20 10:12:12;;;;;;;14.75;8.63;;;27.20;99.90;;;;;;5072014;28;20029;-64
2022/05/20 10:15:07;;;;;;;11.30;7.25;;;27.30;99.90;;;;;;5070640;28;20025;-62
2022/05/20 10:17:46;;;;;;;8.82;7.68;;;27.90;99.90;;;;;;5052570;28;20024;-62
2022/05/20 10:20:18;;;;;;;11.27;7.72;;;27.80;99.90;;;;;;5052999;28;20035;-61
2022/05/20 10:23:12;;;;;;;12.30;7.93;;;27.10;99.90;;;;;;5052780;28;20024;-62
2022/05/20 10:25:50;;;;;;;12.05;7.07;;;27.70;99.90;;;;;;5063176;28;20041;-62
2022/05/20 10:34:12;;;;;;;9.70;7.38;;;28.80;99.90;;;;;;5071141;28;20050;-63
2022/05/20 10:37:19;;;;;;;9.05;5.28;;;29.00;99.90;;;;;;5070461;28;20055;-62
2022/05/20 10:40:09;;;;;;;11.55;5.15;;;29.10;97.30;;;;;;5070517;28;20040;-63
2022/05/20 10:42:59;;;;;;;9.15;4.03;;;28.50;96.50;;;;;;5070701;28;20025;-68
2022/05/20 10:48:45;;;;;;;8.52;3.80;;;28.40;94.60;;;;;;5057534;28;20043;-62
2022/05/20 10:51:26;;;;;;;7.38;4.00;;;28.50;95.10;;;;;;5070961;28;20028;-64
2022/05/20 10:53:54;;;;;;;10.20;4.82;;;28.60;95.10;;;;;;5052514;28;20082;-64
2022/05/20 10:56:42;;;;;;;6.97;3.47;;;28.60;94.70;;;;;;5070638;28;20173;-62
2022/05/20 10:59:23;;;;;;;8.57;3.95;;;28.50;94.60;;;;;;5070830;28;20032;-62
2022/05/20 11:02:14;;;;;;;10.23;3.58;;;28.50;93.80;;;;;;5069940;28;20053;-62
2022/05/20 11:04:43;;;;;;;7.82;4.20;;;28.60;94.00;;;;;;5051657;28;20465;-62
2022/05/20 11:07:35;;;;;;;8.25;4.28;;;28.10;94.00;;;;;;5070483;28;20117;-62
2022/05/20 11:10:22;;;;;;;10.02;3.92;;;28.10;95.00;;;;;;5021638;28;20421;-63
2022/05/20 11:13:13;;;;;;;11.30;4.40;;;28.40;94.80;;;;;;5069766;28;20106;-63
2022/05/20 11:15:57;;;;;;;7.43;4.03;;;28.40;94.90;;;;;;5069440;28;20085;-63
2022/05/20 11:19:03;;;;;;;7.80;4.60;;;28.40;95.10;;;;;;5052120;28;20542;-63
2022/05/20 11:21:47;;;;;;;16.98;5.45;;;28.60;95.30;;;;;;5052525;28;20029;-63
2022/05/20 11:24:19;;;;;;;10.07;5.38;;;28.80;95.30;;;;;;5070077;28;20055;-63
2022/05/20 11:27:29;;;;;;;8.40;5.32;;;29.00;94.70;;;;;;5069442;28;20036;-63
2022/05/20 11:30:05;;;;;;;9.52;5.05;;;29.30;94.40;;;;;;5067582;28;20465;-64
2022/05/20 11:32:55;;;;;;;15.05;5.03;;;29.20;94.70;;;;;;5051224;28;20037;-62
2022/05/20 11:35:58;;;;;;;9.63;5.25;;;29.20;94.80;;;;;;5070103;28;20037;-63
2022/05/20 11:38:32;;;;;;;9.70;6.05;;;29.40;94.70;;;;;;5069421;28;20044;-63
2022/05/20 11:41:23;;;;;;;11.85;5.13;;;29.20;94.70;;;;;;5069264;28;20052;-63
2022/05/20 11:43:48;;;;;;;;;;;29.00;95.10;;;;;;5069713;28;20058;-62
2022/05/20 11:46:37;;;;;;;6.45;4.97;;;29.00;95.40;;;;;;5070367;28;20363;-64
2022/05/20 11:49:26;;;;;;;18.13;5.47;;;29.10;95.30;;;;;;5069706;28;20330;-64
2022/05/20 11:52:06;;;;;;;11.18;5.47;;;29.10;95.60;;;;;;5068473;28;20041;-63
2022/05/20 11:54:43;;;;;;;9.90;5.47;;;28.90;95.80;;;;;;5051390;28;20035;-67
2022/05/20 11:57:22;;;;;;;11.43;4.53;;;29.10;95.50;;;;;;5069483;28;20109;-62
2022/05/20 12:00:04;;;;;;;8.45;5.18;;;29.10;95.40;;;;;;5069484;28;20500;-63
2022/05/20 12:02:50;;;;;;;16.15;5.65;;;28.80;95.50;;;;;;5070035;28;20029;-63
2022/05/20 12:05:19;;;;;;;10.93;5.40;;;28.90;95.40;;;;;;5069231;28;20464;-63
2022/05/20 12:07:45;;;;;;;14.75;5.38;;;28.60;95.60;;;;;;5051305;28;20032;-63
2022/05/20 12:10:31;;;;;;;9.70;5.05;;;28.50;95.60;;;;;;5069829;28;20074;-62
2022/05/20 12:13:26;;;;;;;10.88;5.20;;;28.40;96.00;;;;;;5049676;28;20508;-66
2022/05/20 12:16:13;;;;;;;7.68;5.18;;;28.10;96.10;;;;;;5069416;28;20024;-63
2022/05/20 12:24:40;;;;;;;10.43;6.38;;;28.70;95.70;;;;;;5055270;28;20032;-63
2022/05/20 12:27:37;;;;;;;20.13;7.03;;;28.40;95.60;;;;;;5069883;28;20021;-63
2022/05/20 12:30:28;;;;;;;11.63;5.88;;;28.30;95.90;;;;;;5050885;28;20453;-64
2022/05/20 12:32:53;;;;;;;;;;;28.20;96.20;;;;;;5051614;28;20032;-63
2022/05/20 12:35:33;;;;;;;10.88;5.80;;;28.10;96.30;;;;;;5069623;28;19904;-63
2022/05/20 12:38:18;;;;;;;13.32;6.70;;;27.90;96.10;;;;;;5068990;28;20055;-63
2022/05/20 12:40:44;;;;;;;7.78;5.18;;;27.90;96.50;;;;;;5067631;28;20486;-63
2022/05/20 12:43:11;;;;;;;14.50;5.93;;;28.00;95.90;;;;;;5070750;28;20066;-63
2022/05/20 12:45:51;;;;;;;9.30;6.13;;;28.40;95.80;;;;;;5055096;28;20028;-63
2022/05/20 12:48:21;;;;;;;8.75;6.38;;;28.80;95.30;;;;;;5073565;28;20078;-63
2022/05/20 12:51:05;;;;;;;7.57;5.38;;;29.20;95.30;;;;;;5054683;28;20469;-63
2022/05/20 12:53:34;;;;;;;9.30;5.40;;;29.40;94.90;;;;;;5055294;28;20452;-63
2022/05/20 12:56:00;;;;;;;9.00;5.75;;;29.70;94.50;;;;;;5054154;28;20028;-62
2022/05/20 12:58:29;;;;;;;10.23;5.53;;;29.50;94.40;;;;;;5072518;28;20052;-62
2022/05/20 13:00:59;;;;;;;6.93;5.13;;;29.50;94.50;;;;;;5054334;28;20039;-62
2022/05/20 13:03:37;;;;;;;12.23;6.18;;;29.30;94.20;;;;;;5073109;28;20411;-63
2022/05/20 13:06:02;;;;;;;8.70;5.75;;;29.60;94.20;;;;;;5054036;28;20145;-63
2022/05/20 13:08:49;;;;;;;10.93;6.07;;;29.50;94.40;;;;;;5072862;28;20426;-63
2022/05/20 13:11:18;;;;;;;7.78;5.88;;;29.20;94.90;;;;;;5073020;28;20032;-62
2022/05/20 13:13:45;;;;;;;17.25;6.10;;;29.10;95.30;;;;;;5072108;28;20433;-63
2022/05/20 13:16:13;;;;;;;7.03;5.00;;;28.90;95.20;;;;;;5072475;28;20466;-62
2022/05/20 13:18:43;;;;;;;8.73;5.82;;;28.60;95.20;;;;;;5072607;28;20127;-63
2022/05/20 13:21:16;;;;;;;11.77;5.70;;;28.40;95.80;;;;;;5054794;28;20131;-64
2022/05/20 13:23:45;;;;;;;18.20;5.68;;;28.30;96.10;;;;;;5054093;28;20098;-69
2022/05/20 13:26:20;;;;;;;10.27;4.88;;;28.20;96.10;;;;;;5072257;28;20107;-63
2022/05/20 13:28:46;;;;;;;15.73;5.75;;;28.00;95.80;;;;;;5071025;28;20117;-63
2022/05/20 13:31:18;;;;;;;8.20;5.85;;;28.10;96.40;;;;;;5072495;28;20441;-63
2022/05/20 13:33:44;;;;;;;10.52;5.78;;;28.20;96.70;;;;;;5054081;28;20123;-63
2022/05/20 13:36:17;;;;;;;9.77;5.35;;;28.30;98.50;;;;;;5072349;28;20283;-63
2022/05/20 13:38:49;;;;;;;20.13;5.88;;;28.40;97.40;;;;;;5071972;28;20025;-69
2022/05/20 13:41:15;;;;;;;7.55;5.32;;;28.20;97.30;;;;;;5072425;28;20119;-63
2022/05/20 13:43:41;;;;;;;9.48;5.20;;;28.10;97.10;;;;;;5071803;28;20028;-62
2022/05/20 13:49:14;;;;;;;7.75;5.60;;;27.80;97.50;;;;;;5071862;28;20073;-62
2022/05/20 13:51:54;;;;;;;8.77;5.25;;;27.60;97.50;;;;;;5072240;28;20063;-64
2022/05/20 13:54:34;;;;;;;9.40;5.85;;;27.50;97.90;;;;;;5071307;28;20039;-63
2022/05/20 13:57:01;;;;;;;14.35;6.30;;;27.40;97.80;;;;;;5053177;28;20051;-63